createdAt,value
2022-12-27T00:01:53.814Z,101281.19
2022-12-27T00:04:20.839Z,101278.44
2022-12-27T00:06:47.776Z,101275.06
2022-12-27T00:09:14.727Z,101271.53
2022-12-27T00:11:41.619Z,101275.78
2022-12-27T00:14:08.495Z,101272.25
2022-12-27T00:16:35.652Z,101278.28
2022-12-27T00:19:02.888Z,101275.50
2022-12-27T00:21:29.794Z,101283.31
2022-12-27T00:23:57.889Z,101283.22
2022-12-27T00:26:31.399Z,101290.03
2022-12-27T00:28:59.038Z,101301.19
2022-12-27T00:31:28.925Z,101297.63
2022-12-27T00:33:58.385Z,101301.03
2022-12-27T00:36:29.214Z,101308.63
2022-12-27T00:38:58.485Z,101308.59
2022-12-27T00:41:25.718Z,101307.66
2022-12-27T00:43:52.614Z,101310.19
2022-12-27T00:46:19.841Z,101309.28
2022-12-27T00:48:47.043Z,101310.09
2022-12-27T00:51:21.346Z,101310.00
2022-12-27T00:53:49.891Z,101308.19
2022-12-27T00:56:24.258Z,101314.97
2022-12-27T00:58:56.075Z,101317.41
2022-12-27T01:01:24.951Z,101318.97
2022-12-27T01:03:52.677Z,101327.47
2022-12-27T01:06:23.088Z,101323.03
2022-12-27T01:08:50.382Z,101324.66
2022-12-27T01:11:18.807Z,101336.63
2022-12-27T01:13:46.781Z,101336.56
2022-12-27T01:16:21.124Z,101345.91
2022-12-27T01:18:48.841Z,101341.56
2022-12-27T01:21:19.472Z,101356.97
2022-12-27T01:23:47.120Z,101356.88
2022-12-27T01:26:20.638Z,101356.81
2022-12-27T01:28:48.780Z,101367.13
2022-12-27T01:31:19.663Z,101365.31
2022-12-27T01:33:46.952Z,101367.03
2022-12-27T01:36:20.227Z,101367.81
2022-12-27T01:38:48.581Z,101359.19
2022-12-27T01:41:42.311Z,101357.38
2022-12-27T01:44:40.432Z,101368.41
2022-12-27T01:47:48.051Z,101365.72
2022-12-27T01:50:19.526Z,101364.78
2022-12-27T01:53:05.824Z,101362.91
2022-12-27T01:55:44.551Z,101359.44
2022-12-27T01:58:27.464Z,101370.38
2022-12-27T02:00:54.956Z,101367.94
2022-12-27T02:03:38.764Z,101356.66
2022-12-27T02:06:09.985Z,101366.06
2022-12-27T02:08:58.149Z,101374.59
2022-12-27T02:11:51.402Z,101376.28
2022-12-27T02:14:44.094Z,101377.91
2022-12-27T02:17:19.056Z,101387.31
2022-12-27T02:20:21.508Z,101383.75
2022-12-27T02:23:46.093Z,101391.41
2022-12-27T02:26:55.523Z,101386.91
2022-12-27T02:29:51.341Z,101398.88
2022-12-27T02:32:33.894Z,101403.94
2022-12-27T02:35:10.065Z,101408.16
2022-12-27T02:37:45.240Z,101408.97
2022-12-27T02:40:33.284Z,101411.50
2022-12-27T02:43:19.222Z,101413.81
2022-12-27T02:46:50.549Z,101408.66
2022-12-27T02:49:57.390Z,101416.25
2022-12-27T02:53:04.103Z,101420.41
2022-12-27T02:55:40.579Z,101430.63
2022-12-27T02:58:45.620Z,101421.94
2022-12-27T03:01:48.126Z,101419.22
2022-12-27T03:05:02.919Z,101420.78
2022-12-27T03:08:07.622Z,101421.56
2022-12-27T03:11:07.934Z,101407.59
2022-12-27T03:14:14.650Z,101430.06
2022-12-27T03:16:57.548Z,101414.47
2022-12-27T03:20:01.820Z,101414.41
2022-12-27T03:22:49.823Z,101408.88
2022-12-27T03:25:30.038Z,101412.59
2022-12-27T03:28:29.982Z,101415.09
2022-12-27T03:31:24.251Z,101421.09
2022-12-27T03:34:04.377Z,101438.22
2022-12-27T03:37:03.444Z,101424.44
2022-12-27T03:39:36.578Z,101426.09
2022-12-27T03:42:39.989Z,101428.66
2022-12-27T03:45:07.511Z,101415.75
2022-12-27T03:47:48.990Z,101419.00
2022-12-27T03:50:35.670Z,101424.28
2022-12-27T03:53:19.126Z,101432.94
2022-12-27T03:55:46.018Z,101420.03
2022-12-27T03:58:13.003Z,101421.78
2022-12-27T04:00:40.097Z,101420.94
2022-12-27T04:03:07.029Z,101439.00
2022-12-27T04:05:33.932Z,101430.41
2022-12-27T04:08:19.185Z,101413.16
2022-12-27T04:11:05.331Z,101420.03
2022-12-27T04:13:50.700Z,101417.19
2022-12-27T04:16:36.215Z,101414.72
2022-12-27T04:19:21.963Z,101420.75
2022-12-27T04:22:07.411Z,101425.91
2022-12-27T04:24:52.690Z,101436.19
2022-12-27T04:27:38.114Z,101424.06
2022-12-27T04:30:24.326Z,101431.84
2022-12-27T04:33:09.881Z,101432.75
2022-12-27T04:35:36.773Z,101429.25
2022-12-27T04:38:03.663Z,101431.03
2022-12-27T04:40:49.247Z,101436.22
2022-12-27T04:43:34.637Z,101442.31
2022-12-27T04:46:20.240Z,101457.03
2022-12-27T04:49:06.078Z,101436.31
2022-12-27T04:51:51.416Z,101432.84
2022-12-27T04:54:40.463Z,101418.03
2022-12-27T04:57:07.473Z,101440.66
2022-12-27T04:59:53.043Z,101439.84
2022-12-27T05:02:20.235Z,101446.91
2022-12-27T05:04:48.596Z,101443.56
2022-12-27T05:07:34.465Z,101458.28
2022-12-27T05:10:23.350Z,101441.84
2022-12-27T05:13:08.546Z,101451.41
2022-12-27T05:15:35.463Z,101452.41
2022-12-27T05:18:02.487Z,101444.84
2022-12-27T05:20:29.446Z,101447.53
2022-12-27T05:23:14.660Z,101446.78
2022-12-27T05:25:43.376Z,101450.31
2022-12-27T05:28:11.868Z,101450.50
2022-12-27T05:30:41.994Z,101445.44
2022-12-27T05:33:09.011Z,101447.28
2022-12-27T05:35:35.957Z,101445.63
2022-12-27T05:38:03.390Z,101454.31
2022-12-27T05:40:30.310Z,101448.22
2022-12-27T05:43:01.874Z,101450.88
2022-12-27T05:45:29.648Z,101451.75
2022-12-27T05:47:56.979Z,101451.63
2022-12-27T05:50:23.873Z,101458.63
2022-12-27T05:52:50.836Z,101448.22
2022-12-27T05:55:18.026Z,101469.81
2022-12-27T05:57:44.961Z,101461.22
2022-12-27T06:00:12.742Z,101451.66
2022-12-27T06:02:42.165Z,101468.22
2022-12-27T06:05:10.445Z,101459.66
2022-12-27T06:07:38.434Z,101457.97
2022-12-27T06:10:07.949Z,101453.75
2022-12-27T06:12:35.372Z,101459.84
2022-12-27T06:15:02.704Z,101461.53
2022-12-27T06:17:29.589Z,101465.81
2022-12-27T06:19:57.391Z,101450.78
2022-12-27T06:22:24.862Z,101463.25
2022-12-27T06:24:51.822Z,101466.69
2022-12-27T06:27:18.714Z,101462.38
2022-12-27T06:29:45.605Z,101463.25
2022-12-27T06:32:12.552Z,101464.13
2022-12-27T06:34:39.418Z,101465.94
2022-12-27T06:37:06.337Z,101470.28
2022-12-27T06:39:33.203Z,101466.88
2022-12-27T06:42:00.114Z,101470.47
2022-12-27T06:44:27.052Z,101480.03
2022-12-27T06:46:53.937Z,101482.66
2022-12-27T06:49:20.855Z,101485.25
2022-12-27T06:51:52.549Z,101491.34
2022-12-27T06:54:22.905Z,101492.19
2022-12-27T06:56:49.846Z,101489.59
2022-12-27T06:59:16.777Z,101480.66
2022-12-27T07:01:43.818Z,101499.00
2022-12-27T07:04:10.855Z,101499.75
2022-12-27T07:06:38.152Z,101506.66
2022-12-27T07:09:05.938Z,101510.13
2022-12-27T07:11:37.001Z,101504.09
2022-12-27T07:14:04.394Z,101515.28
2022-12-27T07:16:31.861Z,101514.41
2022-12-27T07:18:59.771Z,101511.78
2022-12-27T07:21:28.567Z,101520.34
2022-12-27T07:23:56.137Z,101530.63
2022-12-27T07:26:29.879Z,101529.69
2022-12-27T07:29:00.089Z,101530.53
2022-12-27T07:31:30.358Z,101526.06
2022-12-27T07:33:58.349Z,101536.53
2022-12-27T07:36:28.701Z,101533.13
2022-12-27T07:38:55.732Z,101540.00
2022-12-27T07:41:22.741Z,101533.97
2022-12-27T07:43:49.674Z,101538.38
2022-12-27T07:46:20.576Z,101538.47
2022-12-27T07:48:48.101Z,101536.69
2022-12-27T07:51:16.498Z,101540.19
2022-12-27T07:53:43.696Z,101541.94
2022-12-27T07:56:16.750Z,101541.19
2022-12-27T07:58:49.522Z,101531.78
2022-12-27T08:01:19.514Z,101537.84
2022-12-27T08:03:46.895Z,101529.25
2022-12-27T08:06:29.099Z,101541.47
2022-12-27T08:08:59.034Z,101536.41
2022-12-27T08:11:30.142Z,101526.09
2022-12-27T08:13:57.149Z,101538.44
2022-12-27T08:16:26.543Z,101543.72
2022-12-27T08:18:53.732Z,101551.63
2022-12-27T08:21:20.610Z,101550.06
2022-12-27T08:23:47.520Z,101557.97
2022-12-27T08:26:14.991Z,101565.03
2022-12-27T08:28:42.036Z,101562.63
2022-12-27T08:31:11.279Z,101571.38
2022-12-27T08:33:39.114Z,101560.34
2022-12-27T08:36:36.737Z,101568.16
2022-12-27T08:38:55.759Z,101558.91
2022-12-27T08:41:23.200Z,101551.13
2022-12-27T08:43:50.201Z,101575.63
2022-12-27T08:46:19.307Z,101579.19
2022-12-27T08:48:49.603Z,101580.16
2022-12-27T08:51:26.558Z,101592.38
2022-12-27T08:54:00.359Z,101602.00
2022-12-27T08:56:27.378Z,101602.09
2022-12-27T08:58:54.332Z,101605.75
2022-12-27T09:01:21.384Z,101611.09
2022-12-27T09:03:48.933Z,101601.78
2022-12-27T09:06:22.103Z,101607.06
2022-12-27T09:08:50.280Z,101604.66
2022-12-27T09:11:21.447Z,101591.44
2022-12-27T09:13:48.381Z,101610.94
2022-12-27T09:16:18.870Z,101603.28
2022-12-27T09:18:50.666Z,101614.66
2022-12-27T09:21:20.057Z,101607.00
2022-12-27T09:23:47.710Z,101607.78
2022-12-27T09:26:21.490Z,101609.75
2022-12-27T09:28:49.340Z,101621.13
2022-12-27T09:31:18.075Z,101613.38
2022-12-27T09:33:45.152Z,101615.19
2022-12-27T09:36:15.789Z,101630.72
2022-12-27T09:38:43.553Z,101636.94
2022-12-27T09:44:41.779Z,101633.47
2022-12-27T09:47:27.978Z,101643.03
2022-12-27T09:50:02.557Z,101641.44
2022-12-27T09:52:37.307Z,101646.69
2022-12-27T09:55:20.861Z,101636.34
2022-12-27T09:57:48.380Z,101639.88
2022-12-27T10:00:34.097Z,101627.72
2022-12-27T10:03:05.906Z,101649.53
2022-12-27T10:05:37.162Z,101647.81
2022-12-27T10:08:34.915Z,101658.28
2022-12-27T10:11:37.388Z,101667.91
2022-12-27T10:14:32.585Z,101680.09
2022-12-27T10:17:42.046Z,101664.66
2022-12-27T10:20:55.947Z,101694.19
2022-12-27T10:23:32.869Z,101693.41
2022-12-27T10:26:05.279Z,101687.53
2022-12-27T10:28:41.996Z,101679.00
2022-12-27T10:31:21.755Z,101688.50
2022-12-27T10:33:50.591Z,101694.03
2022-12-27T10:36:24.162Z,101699.22
2022-12-27T10:38:51.081Z,101697.00
2022-12-27T10:41:50.212Z,101704.88
2022-12-27T10:44:17.231Z,101703.16
2022-12-27T10:46:50.021Z,101704.00
2022-12-27T10:49:29.585Z,101707.63
2022-12-27T10:52:07.846Z,101706.88
2022-12-27T10:54:35.276Z,101691.34
2022-12-27T10:57:35.039Z,101704.50
2022-12-27T11:00:18.752Z,101703.72
2022-12-27T11:02:57.854Z,101697.63
2022-12-27T11:05:28.332Z,101697.00
2022-12-27T11:07:55.376Z,101698.59
2022-12-27T11:10:26.434Z,101714.34
2022-12-27T11:12:59.551Z,101715.22
2022-12-27T11:15:30.174Z,101720.50
2022-12-27T11:18:01.038Z,101719.69
2022-12-27T11:20:30.983Z,101718.03
2022-12-27T11:23:11.226Z,101724.13
2022-12-27T11:26:05.288Z,101711.00
2022-12-27T11:28:40.137Z,101713.75
2022-12-27T11:31:19.481Z,101717.19
2022-12-27T11:33:56.815Z,101707.59
2022-12-27T11:36:34.409Z,101712.84
2022-12-27T11:39:01.832Z,101714.53
2022-12-27T11:41:49.983Z,101720.50
2022-12-27T11:44:28.983Z,101722.16
2022-12-27T11:47:26.645Z,101720.41
2022-12-27T11:50:03.660Z,101730.69
2022-12-27T11:53:00.879Z,101729.75
2022-12-27T11:56:15.496Z,101733.28
2022-12-27T11:59:19.180Z,101736.75
2022-12-27T12:02:46.088Z,101750.53
2022-12-27T12:05:54.968Z,101749.75
2022-12-27T12:09:12.189Z,101739.94
2022-12-27T12:11:56.831Z,101751.56
2022-12-27T12:15:20.106Z,101755.13
2022-12-27T12:18:12.381Z,101753.53
2022-12-27T12:20:48.635Z,101760.63
2022-12-27T12:24:06.727Z,101772.03
2022-12-27T12:27:02.344Z,101761.84
2022-12-27T12:30:04.274Z,101762.84
2022-12-27T12:32:54.188Z,101770.66
2022-12-27T12:36:15.452Z,101760.28
2022-12-27T12:39:00.958Z,101771.72
2022-12-27T12:42:06.297Z,101783.03
2022-12-27T12:45:06.388Z,101778.63
2022-12-27T12:48:20.503Z,101766.00
2022-12-27T12:51:33.809Z,101777.50
2022-12-27T12:54:26.850Z,101782.59
2022-12-27T12:57:09.577Z,101785.97
2022-12-27T13:00:10.337Z,101799.69
2022-12-27T13:03:09.960Z,101810.84
2022-12-27T13:05:57.580Z,101821.16
2022-12-27T13:09:03.543Z,101816.66
2022-12-27T13:11:58.699Z,101818.38
2022-12-27T13:14:55.178Z,101824.44
2022-12-27T13:17:53.585Z,101819.22
2022-12-27T13:20:52.543Z,101833.91
2022-12-27T13:23:45.948Z,101827.78
2022-12-27T13:26:39.713Z,101830.31
2022-12-27T13:29:31.254Z,101831.03
2022-12-27T13:32:32.019Z,101844.72
2022-12-27T13:35:21.391Z,101839.31
2022-12-27T13:38:31.123Z,101838.13
2022-12-27T13:42:06.492Z,101842.41
2022-12-27T13:44:48.228Z,101843.16
2022-12-27T13:48:04.023Z,101847.38
2022-12-27T13:50:59.185Z,101834.34
2022-12-27T13:54:21.952Z,101841.06
2022-12-27T13:57:26.227Z,101828.03
2022-12-27T14:00:13.007Z,101835.72
2022-12-27T14:03:14.364Z,101836.47
2022-12-27T14:05:41.127Z,101833.81
2022-12-27T14:09:08.046Z,101842.34
2022-12-27T14:12:09.327Z,101843.09
2022-12-27T14:14:39.537Z,101835.41
2022-12-27T14:17:45.388Z,101837.09
2022-12-27T14:20:50.867Z,101843.09
2022-12-27T14:24:16.808Z,101846.47
2022-12-27T14:27:12.253Z,101847.31
2022-12-27T14:30:10.587Z,101851.59
2022-12-27T14:33:17.167Z,101855.00
2022-12-27T14:36:15.670Z,101860.97
2022-12-27T14:38:53.842Z,101870.38
2022-12-27T14:42:07.268Z,101878.97
2022-12-27T14:45:10.263Z,101880.50
2022-12-27T14:48:00.264Z,101882.06
2022-12-27T14:51:01.253Z,101885.31
2022-12-27T14:54:09.848Z,101886.00
2022-12-27T14:56:48.492Z,101885.88
2022-12-27T14:59:33.861Z,101891.72
2022-12-27T15:02:25.697Z,101882.03
2022-12-27T15:05:21.834Z,101884.44
2022-12-27T15:08:20.242Z,101886.75
2022-12-27T15:11:01.528Z,101890.09
2022-12-27T15:13:51.634Z,101888.25
2022-12-27T15:17:02.462Z,101887.22
2022-12-27T15:19:44.631Z,101887.94
2022-12-27T15:22:49.281Z,101883.44
2022-12-27T15:26:04.002Z,101887.63
2022-12-27T15:29:08.867Z,101884.00
2022-12-27T15:32:15.203Z,101888.09
2022-12-27T15:35:07.983Z,101893.25
2022-12-27T15:38:03.117Z,101898.25
2022-12-27T15:40:32.586Z,101898.22
2022-12-27T15:43:24.312Z,101895.63
2022-12-27T15:46:36.661Z,101899.84
2022-12-27T15:49:09.704Z,101899.84
2022-12-27T15:51:59.728Z,101901.47
2022-12-27T15:55:13.808Z,101914.28
2022-12-27T15:58:08.466Z,101909.03
2022-12-27T16:00:35.886Z,101906.47
2022-12-27T16:03:32.592Z,101909.88
2022-12-27T16:06:01.100Z,101918.50
2022-12-27T16:08:34.860Z,101909.91
2022-12-27T16:11:12.785Z,101908.16
2022-12-27T16:13:44.605Z,101914.28
2022-12-27T16:16:37.685Z,101902.16
2022-12-27T16:19:23.651Z,101912.59
2022-12-27T16:21:51.783Z,101911.78
2022-12-27T16:24:26.871Z,101910.00
2022-12-27T16:27:05.517Z,101913.41
2022-12-27T16:29:35.638Z,101907.41
2022-12-27T16:32:24.401Z,101916.88
2022-12-27T16:34:57.346Z,101909.88
2022-12-27T16:37:44.881Z,101902.78
2022-12-27T16:40:38.384Z,101915.72
2022-12-27T16:43:05.140Z,101919.06
2022-12-27T16:46:14.628Z,101917.16
2022-12-27T16:49:05.561Z,101928.38
2022-12-27T16:52:07.408Z,101924.75
2022-12-27T16:55:17.427Z,101933.41
2022-12-27T16:57:48.231Z,101935.16
2022-12-27T17:00:48.068Z,101931.59
2022-12-27T17:03:36.299Z,101935.38
2022-12-27T17:06:38.306Z,101935.53
2022-12-27T17:09:08.137Z,101934.84
2022-12-27T17:12:09.841Z,101928.09
2022-12-27T17:14:38.617Z,101923.13
2022-12-27T17:17:23.242Z,101925.78
2022-12-27T17:20:06.842Z,101918.84
2022-12-27T17:22:35.870Z,101919.78
2022-12-27T17:25:04.098Z,101923.19
2022-12-27T17:27:40.098Z,101911.91
2022-12-27T17:30:46.563Z,101928.19
2022-12-27T17:33:28.890Z,101915.09
2022-12-27T17:36:05.640Z,101923.59
2022-12-27T17:39:14.215Z,101919.88
2022-12-27T17:42:03.956Z,101917.28
2022-12-27T17:44:43.409Z,101930.88
2022-12-27T17:47:41.254Z,101935.94
2022-12-27T17:50:17.561Z,101930.50
2022-12-27T17:53:29.603Z,101939.13
2022-12-27T17:56:40.457Z,101937.22
2022-12-27T17:59:23.309Z,101943.16
2022-12-27T18:01:57.629Z,101931.72
2022-12-27T18:04:28.221Z,101947.34
2022-12-27T18:07:07.973Z,101931.59
2022-12-27T18:09:52.686Z,101942.13
2022-12-27T18:12:29.372Z,101935.13
2022-12-27T18:15:21.794Z,101950.56
2022-12-27T18:18:07.397Z,101937.56
2022-12-27T18:20:37.702Z,101934.94
2022-12-27T18:23:04.470Z,101934.84
2022-12-27T18:25:40.437Z,101939.06
2022-12-27T18:28:18.005Z,101938.19
2022-12-27T18:31:32.889Z,101932.81
2022-12-27T18:34:21.926Z,101929.22
2022-12-27T18:36:58.649Z,101926.41
2022-12-27T18:39:32.588Z,101926.34
2022-12-27T18:42:03.101Z,101918.53
2022-12-27T18:44:45.068Z,101913.16
2022-12-27T18:47:25.126Z,101910.38
2022-12-27T18:49:58.942Z,101914.00
2022-12-27T18:52:32.822Z,101910.31
2022-12-27T18:55:16.759Z,101917.25
2022-12-27T18:57:44.209Z,101913.69
2022-12-27T19:00:25.695Z,101919.59
2022-12-27T19:02:54.835Z,101914.38
2022-12-27T19:05:21.810Z,101908.31
2022-12-27T19:07:59.015Z,101916.81
2022-12-27T19:10:29.658Z,101909.06
2022-12-27T19:12:57.324Z,101910.69
2022-12-27T19:15:43.248Z,101929.50
2022-12-27T19:18:35.035Z,101911.31
2022-12-27T19:21:05.176Z,101911.16
2022-12-27T19:23:43.241Z,101910.22
2022-12-27T19:26:16.069Z,101908.47
2022-12-27T19:28:45.143Z,101917.00
2022-12-27T19:31:21.764Z,101911.78
2022-12-27T19:33:59.193Z,101905.75
2022-12-27T19:36:41.196Z,101909.78
2022-12-27T19:39:22.775Z,101915.03
2022-12-27T19:41:50.514Z,101914.00
2022-12-27T19:44:18.506Z,101914.94
2022-12-27T19:46:45.697Z,101932.97
2022-12-27T19:52:00.154Z,101933.69
2022-12-27T19:54:27.430Z,101920.72
2022-12-27T19:56:55.422Z,101924.91
2022-12-27T19:59:24.307Z,101925.66
2022-12-27T20:01:52.717Z,101912.69
2022-12-27T20:04:19.868Z,101918.66
2022-12-27T20:06:48.727Z,101916.91
2022-12-27T20:09:18.375Z,101917.72
2022-12-27T20:11:46.115Z,101916.81
2022-12-27T20:14:14.652Z,101907.22
2022-12-27T20:16:41.787Z,101917.56
2022-12-27T20:19:12.311Z,101910.31
2022-12-27T20:21:40.555Z,101914.84
2022-12-27T20:24:12.141Z,101916.44
2022-12-27T20:26:40.296Z,101908.72
2022-12-27T20:29:07.371Z,101906.66
2022-12-27T20:31:37.553Z,101905.13
2022-12-27T20:34:11.017Z,101919.56
2022-12-27T20:36:37.985Z,101916.09
2022-12-27T20:39:05.770Z,101918.66
2022-12-27T20:41:32.659Z,101918.63
2022-12-27T20:43:59.667Z,101915.88
2022-12-27T20:46:26.844Z,101917.56
2022-12-27T20:48:55.599Z,101899.22
2022-12-27T20:51:27.162Z,101909.78
2022-12-27T20:53:56.682Z,101902.78
2022-12-27T20:56:24.845Z,101894.94
2022-12-27T20:58:52.106Z,101889.78
2022-12-27T21:01:25.550Z,101894.13
2022-12-27T21:03:54.021Z,101890.66
2022-12-27T21:06:25.302Z,101894.13
2022-12-27T21:08:56.607Z,101888.97
2022-12-27T21:11:31.479Z,101888.19
2022-12-27T21:14:01.484Z,101881.22
2022-12-27T21:16:31.109Z,101882.06
2022-12-27T21:18:58.409Z,101879.47
2022-12-27T21:21:28.786Z,101868.28
2022-12-27T21:23:57.298Z,101872.56
2022-12-27T21:26:31.362Z,101862.16
2022-12-27T21:29:00.417Z,101864.81
2022-12-27T21:31:28.096Z,101870.84
2022-12-27T21:33:55.088Z,101864.72
2022-12-27T21:36:25.062Z,101866.44
2022-12-27T21:38:52.640Z,101871.47
2022-12-27T21:41:25.929Z,101870.72
2022-12-27T21:43:53.285Z,101867.31
2022-12-27T21:46:22.793Z,101861.28
2022-12-27T21:49:01.793Z,101855.28
2022-12-27T21:51:30.786Z,101848.44
2022-12-27T21:53:58.382Z,101854.63
2022-12-27T21:56:26.426Z,101861.63
2022-12-27T21:58:55.577Z,101843.50
2022-12-27T22:01:31.023Z,101849.97
2022-12-27T22:04:17.801Z,101839.94
2022-12-27T22:06:47.253Z,101835.66
2022-12-27T22:09:15.053Z,101843.97
2022-12-27T22:11:41.941Z,101826.91
2022-12-27T22:14:08.864Z,101822.69
2022-12-27T22:16:38.768Z,101830.66
2022-12-27T22:19:09.291Z,101818.75
2022-12-27T22:21:38.624Z,101811.97
2022-12-27T22:24:06.627Z,101808.72
2022-12-27T22:26:39.348Z,101801.84
2022-12-27T22:29:07.991Z,101803.56
2022-12-27T22:31:37.527Z,101795.06
2022-12-27T22:34:05.586Z,101792.38
2022-12-27T22:36:33.503Z,101795.81
2022-12-27T22:39:01.411Z,101780.91
2022-12-27T22:41:37.771Z,101780.97
2022-12-27T22:44:08.585Z,101781.97
2022-12-27T22:47:24.130Z,101788.97
2022-12-27T22:49:22.947Z,101780.47
2022-12-27T22:51:49.804Z,101785.84
2022-12-27T22:54:16.729Z,101774.78
2022-12-27T22:56:43.634Z,101774.78
2022-12-27T22:59:14.183Z,101787.75
2022-12-27T23:01:42.740Z,101775.66
2022-12-27T23:04:13.455Z,101771.38
2022-12-27T23:06:41.499Z,101762.72
2022-12-27T23:09:08.993Z,101774.78
2022-12-27T23:11:38.820Z,101764.44
2022-12-27T23:14:11.945Z,101771.38
2022-12-27T23:16:42.348Z,101761.09
2022-12-27T23:19:10.278Z,101761.19
2022-12-27T23:21:37.434Z,101757.72
2022-12-27T23:24:05.251Z,101744.53
2022-12-27T23:26:32.425Z,101736.91
2022-12-27T23:28:59.409Z,101737.09
2022-12-27T23:31:27.785Z,101731.00
2022-12-27T23:33:55.582Z,101731.75
2022-12-27T23:36:23.006Z,101735.28
2022-12-27T23:38:50.550Z,101724.94
2022-12-27T23:41:24.044Z,101721.50
2022-12-27T23:43:54.599Z,101717.19
2022-12-27T23:46:28.086Z,101714.63
2022-12-27T23:49:00.993Z,101706.00
2022-12-27T23:51:29.471Z,101697.38
2022-12-27T23:53:56.742Z,101690.50
2022-12-27T23:56:30.251Z,101683.59
2022-12-27T23:58:59.218Z,101693.84
